sensor_id;sensor_type;location;lat;lon;timestamp;P1;durP1;ratioP1;P2;durP2;ratioP2
49392;SDS011;35268;42.642;23.308;2023-06-10T00:01:41;9.45;;;4.35;;
49392;SDS011;35268;42.642;23.308;2023-06-10T00:04:08;10.05;;;4.88;;
49392;SDS011;35268;42.642;23.308;2023-06-10T00:06:34;12.13;;;5.05;;
49392;SDS011;35268;42.642;23.308;2023-06-10T00:09:03;10.07;;;5.03;;
49392;SDS011;35268;42.642;23.308;2023-06-10T00:11:36;9.05;;;4.78;;
49392;SDS011;35268;42.642;23.308;2023-06-10T00:14:02;10.07;;;4.95;;
49392;SDS011;35268;42.642;23.308;2023-06-10T00:16:28;12.93;;;5.85;;
49392;SDS011;35268;42.642;23.308;2023-06-10T00:18:53;10.90;;;4.97;;
49392;SDS011;35268;42.642;23.308;2023-06-10T00:21:21;8.23;;;5.13;;
49392;SDS011;35268;42.642;23.308;2023-06-10T00:23:47;12.38;;;6.10;;
49392;SDS011;35268;42.642;23.308;2023-06-10T00:26:12;14.30;;;5.35;;
49392;SDS011;35268;42.642;23.308;2023-06-10T00:28:38;7.57;;;5.00;;
49392;SDS011;35268;42.642;23.308;2023-06-10T00:31:03;11.30;;;5.75;;
49392;SDS011;35268;42.642;23.308;2023-06-10T00:33:30;9.77;;;5.65;;
49392;SDS011;35268;42.642;23.308;2023-06-10T00:35:55;9.80;;;6.18;;
49392;SDS011;35268;42.642;23.308;2023-06-10T00:38:21;9.43;;;6.30;;
49392;SDS011;35268;42.642;23.308;2023-06-10T00:40:46;18.02;;;7.05;;
49392;SDS011;35268;42.642;23.308;2023-06-10T00:43:12;13.40;;;8.05;;
49392;SDS011;35268;42.642;23.308;2023-06-10T00:45:37;19.40;;;8.00;;
49392;SDS011;35268;42.642;23.308;2023-06-10T00:48:03;12.73;;;7.68;;
49392;SDS011;35268;42.642;23.308;2023-06-10T00:50:29;15.13;;;7.50;;
49392;SDS011;35268;42.642;23.308;2023-06-10T00:52:56;14.35;;;8.23;;
49392;SDS011;35268;42.642;23.308;2023-06-10T00:55:22;13.82;;;8.90;;
49392;SDS011;35268;42.642;23.308;2023-06-10T00:57:48;17.92;;;9.10;;
49392;SDS011;35268;42.642;23.308;2023-06-10T01:00:15;16.02;;;9.07;;
49392;SDS011;35268;42.642;23.308;2023-06-10T01:02:40;17.23;;;9.57;;
49392;SDS011;35268;42.642;23.308;2023-06-10T01:05:06;13.57;;;8.55;;
49392;SDS011;35268;42.642;23.308;2023-06-10T01:07:36;15.13;;;8.73;;
49392;SDS011;35268;42.642;23.308;2023-06-10T01:10:28;16.52;;;8.63;;
49392;SDS011;35268;42.642;23.308;2023-06-10T01:12:59;12.95;;;8.00;;
49392;SDS011;35268;42.642;23.308;2023-06-10T01:15:28;13.20;;;8.05;;
49392;SDS011;35268;42.642;23.308;2023-06-10T01:17:59;12.73;;;8.07;;
49392;SDS011;35268;42.642;23.308;2023-06-10T01:20:26;15.82;;;9.35;;
49392;SDS011;35268;42.642;23.308;2023-06-10T01:22:56;13.27;;;7.70;;
49392;SDS011;35268;42.642;23.308;2023-06-10T01:25:23;14.63;;;8.50;;
49392;SDS011;35268;42.642;23.308;2023-06-10T01:27:52;13.40;;;7.05;;
49392;SDS011;35268;42.642;23.308;2023-06-10T01:30:25;16.50;;;7.43;;
49392;SDS011;35268;42.642;23.308;2023-06-10T01:32:55;12.15;;;6.63;;
49392;SDS011;35268;42.642;23.308;2023-06-10T01:35:24;13.75;;;6.38;;
49392;SDS011;35268;42.642;23.308;2023-06-10T01:37:51;11.57;;;7.30;;
49392;SDS011;35268;42.642;23.308;2023-06-10T01:40:19;9.60;;;6.32;;
49392;SDS011;35268;42.642;23.308;2023-06-10T01:42:45;12.05;;;6.72;;
49392;SDS011;35268;42.642;23.308;2023-06-10T01:45:11;13.57;;;6.18;;
49392;SDS011;35268;42.642;23.308;2023-06-10T01:47:36;13.00;;;6.43;;
49392;SDS011;35268;42.642;23.308;2023-06-10T01:50:02;12.20;;;6.45;;
49392;SDS011;35268;42.642;23.308;2023-06-10T01:52:27;14.32;;;6.78;;
49392;SDS011;35268;42.642;23.308;2023-06-10T01:54:53;12.10;;;7.75;;
49392;SDS011;35268;42.642;23.308;2023-06-10T01:57:18;12.70;;;6.65;;
49392;SDS011;35268;42.642;23.308;2023-06-10T01:59:44;11.82;;;7.22;;
49392;SDS011;35268;42.642;23.308;2023-06-10T02:02:11;11.77;;;7.47;;
49392;SDS011;35268;42.642;23.308;2023-06-10T02:04:36;17.50;;;6.22;;
49392;SDS011;35268;42.642;23.308;2023-06-10T02:07:02;13.35;;;6.80;;
49392;SDS011;35268;42.642;23.308;2023-06-10T02:09:29;13.93;;;7.60;;
49392;SDS011;35268;42.642;23.308;2023-06-10T02:11:55;11.95;;;7.22;;
49392;SDS011;35268;42.642;23.308;2023-06-10T02:14:21;11.40;;;6.65;;
49392;SDS011;35268;42.642;23.308;2023-06-10T02:16:46;9.63;;;6.28;;
49392;SDS011;35268;42.642;23.308;2023-06-10T02:19:13;11.80;;;6.75;;
49392;SDS011;35268;42.642;23.308;2023-06-10T02:21:38;7.72;;;5.60;;
49392;SDS011;35268;42.642;23.308;2023-06-10T02:24:04;8.77;;;6.50;;
49392;SDS011;35268;42.642;23.308;2023-06-10T02:26:30;8.57;;;5.85;;
49392;SDS011;35268;42.642;23.308;2023-06-10T02:28:56;13.35;;;5.70;;
49392;SDS011;35268;42.642;23.308;2023-06-10T02:31:22;14.65;;;5.72;;
49392;SDS011;35268;42.642;23.308;2023-06-10T02:33:49;10.40;;;5.63;;
49392;SDS011;35268;42.642;23.308;2023-06-10T02:36:14;9.13;;;5.60;;
49392;SDS011;35268;42.642;23.308;2023-06-10T02:38:40;7.20;;;5.03;;
49392;SDS011;35268;42.642;23.308;2023-06-10T02:41:06;11.40;;;5.40;;
49392;SDS011;35268;42.642;23.308;2023-06-10T02:43:32;7.35;;;4.45;;
49392;SDS011;35268;42.642;23.308;2023-06-10T02:45:57;7.97;;;4.78;;
49392;SDS011;35268;42.642;23.308;2023-06-10T02:48:26;10.18;;;4.50;;
49392;SDS011;35268;42.642;23.308;2023-06-10T02:50:52;7.85;;;3.80;;
49392;SDS011;35268;42.642;23.308;2023-06-10T02:53:18;7.20;;;4.43;;
49392;SDS011;35268;42.642;23.308;2023-06-10T02:55:43;9.13;;;4.13;;
49392;SDS011;35268;42.642;23.308;2023-06-10T02:58:09;8.05;;;4.65;;
49392;SDS011;35268;42.642;23.308;2023-06-10T03:00:34;7.75;;;4.43;;
49392;SDS011;35268;42.642;23.308;2023-06-10T03:03:00;6.78;;;4.20;;
49392;SDS011;35268;42.642;23.308;2023-06-10T03:05:28;8.45;;;4.05;;
49392;SDS011;35268;42.642;23.308;2023-06-10T03:07:54;9.27;;;3.80;;
49392;SDS011;35268;42.642;23.308;2023-06-10T03:10:20;5.20;;;3.55;;
49392;SDS011;35268;42.642;23.308;2023-06-10T03:12:45;10.45;;;3.83;;
49392;SDS011;35268;42.642;23.308;2023-06-10T03:15:11;5.55;;;4.20;;
49392;SDS011;35268;42.642;23.308;2023-06-10T03:17:37;9.68;;;4.15;;
49392;SDS011;35268;42.642;23.308;2023-06-10T03:20:03;6.82;;;4.28;;
49392;SDS011;35268;42.642;23.308;2023-06-10T03:22:30;4.53;;;3.25;;
49392;SDS011;35268;42.642;23.308;2023-06-10T03:24:56;6.72;;;3.92;;
49392;SDS011;35268;42.642;23.308;2023-06-10T03:27:22;7.88;;;3.80;;
49392;SDS011;35268;42.642;23.308;2023-06-10T03:29:48;4.82;;;3.58;;
49392;SDS011;35268;42.642;23.308;2023-06-10T03:32:13;8.80;;;4.00;;
49392;SDS011;35268;42.642;23.308;2023-06-10T03:34:40;14.38;;;4.30;;
49392;SDS011;35268;42.642;23.308;2023-06-10T03:37:05;6.05;;;3.30;;
49392;SDS011;35268;42.642;23.308;2023-06-10T03:39:32;10.73;;;3.63;;
49392;SDS011;35268;42.642;23.308;2023-06-10T03:41:57;10.00;;;4.05;;
49392;SDS011;35268;42.642;23.308;2023-06-10T03:44:24;11.77;;;4.47;;
49392;SDS011;35268;42.642;23.308;2023-06-10T03:46:50;8.77;;;4.70;;
49392;SDS011;35268;42.642;23.308;2023-06-10T03:49:16;9.50;;;4.60;;
49392;SDS011;35268;42.642;23.308;2023-06-10T03:51:42;14.50;;;5.45;;
49392;SDS011;35268;42.642;23.308;2023-06-10T03:54:08;11.73;;;5.00;;
49392;SDS011;35268;42.642;23.308;2023-06-10T03:56:33;14.27;;;4.95;;
49392;SDS011;35268;42.642;23.308;2023-06-10T03:59:00;9.10;;;4.75;;
49392;SDS011;35268;42.642;23.308;2023-06-10T04:01:25;7.82;;;5.07;;
49392;SDS011;35268;42.642;23.308;2023-06-10T04:03:51;8.07;;;5.18;;
49392;SDS011;35268;42.642;23.308;2023-06-10T04:06:19;9.40;;;4.95;;
49392;SDS011;35268;42.642;23.308;2023-06-10T04:08:44;9.07;;;5.20;;
49392;SDS011;35268;42.642;23.308;2023-06-10T04:11:10;8.68;;;5.10;;
49392;SDS011;35268;42.642;23.308;2023-06-10T04:13:35;11.10;;;5.03;;
49392;SDS011;35268;42.642;23.308;2023-06-10T04:16:04;9.07;;;5.65;;
49392;SDS011;35268;42.642;23.308;2023-06-10T04:18:32;13.77;;;5.70;;
49392;SDS011;35268;42.642;23.308;2023-06-10T04:20:57;12.77;;;5.20;;
49392;SDS011;35268;42.642;23.308;2023-06-10T04:23:23;9.25;;;5.55;;
49392;SDS011;35268;42.642;23.308;2023-06-10T04:25:48;10.88;;;5.22;;
49392;SDS011;35268;42.642;23.308;2023-06-10T04:28:14;8.88;;;5.80;;
49392;SDS011;35268;42.642;23.308;2023-06-10T04:30:39;9.07;;;6.60;;
49392;SDS011;35268;42.642;23.308;2023-06-10T04:33:04;13.85;;;7.25;;
49392;SDS011;35268;42.642;23.308;2023-06-10T04:35:31;9.93;;;6.25;;
49392;SDS011;35268;42.642;23.308;2023-06-10T04:37:58;9.27;;;6.45;;
49392;SDS011;35268;42.642;23.308;2023-06-10T04:40:23;9.77;;;6.15;;
49392;SDS011;35268;42.642;23.308;2023-06-10T04:42:48;10.55;;;6.80;;
49392;SDS011;35268;42.642;23.308;2023-06-10T04:45:14;11.73;;;6.68;;
49392;SDS011;35268;42.642;23.308;2023-06-10T04:47:40;14.25;;;6.65;;
49392;SDS011;35268;42.642;23.308;2023-06-10T04:50:05;11.27;;;7.68;;
49392;SDS011;35268;42.642;23.308;2023-06-10T04:52:31;12.07;;;7.80;;
49392;SDS011;35268;42.642;23.308;2023-06-10T04:54:58;12.77;;;8.27;;
49392;SDS011;35268;42.642;23.308;2023-06-10T04:57:24;15.32;;;8.35;;
49392;SDS011;35268;42.642;23.308;2023-06-10T04:59:50;13.63;;;9.00;;
49392;SDS011;35268;42.642;23.308;2023-06-10T05:02:15;11.43;;;7.43;;
49392;SDS011;35268;42.642;23.308;2023-06-10T05:04:40;11.35;;;7.35;;
49392;SDS011;35268;42.642;23.308;2023-06-10T05:07:06;10.35;;;7.97;;
49392;SDS011;35268;42.642;23.308;2023-06-10T05:09:31;13.10;;;7.85;;
49392;SDS011;35268;42.642;23.308;2023-06-10T05:11:58;15.07;;;7.55;;
49392;SDS011;35268;42.642;23.308;2023-06-10T05:14:23;18.02;;;8.30;;
49392;SDS011;35268;42.642;23.308;2023-06-10T05:16:48;13.55;;;7.25;;
49392;SDS011;35268;42.642;23.308;2023-06-10T05:19:14;15.10;;;8.10;;
49392;SDS011;35268;42.642;23.308;2023-06-10T05:21:41;13.27;;;8.35;;
49392;SDS011;35268;42.642;23.308;2023-06-10T05:24:06;22.45;;;9.02;;
49392;SDS011;35268;42.642;23.308;2023-06-10T05:26:32;15.60;;;9.15;;
49392;SDS011;35268;42.642;23.308;2023-06-10T05:29:02;14.55;;;8.07;;
49392;SDS011;35268;42.642;23.308;2023-06-10T05:31:27;11.00;;;7.95;;
49392;SDS011;35268;42.642;23.308;2023-06-10T05:33:56;12.90;;;8.60;;
49392;SDS011;35268;42.642;23.308;2023-06-10T05:36:21;20.38;;;9.70;;
49392;SDS011;35268;42.642;23.308;2023-06-10T05:38:47;16.25;;;8.25;;
49392;SDS011;35268;42.642;23.308;2023-06-10T05:41:13;13.82;;;9.50;;
49392;SDS011;35268;42.642;23.308;2023-06-10T05:43:38;15.93;;;9.18;;
49392;SDS011;35268;42.642;23.308;2023-06-10T05:46:05;15.77;;;9.50;;
49392;SDS011;35268;42.642;23.308;2023-06-10T05:48:30;16.58;;;8.68;;
49392;SDS011;35268;42.642;23.308;2023-06-10T05:50:56;17.38;;;9.75;;
49392;SDS011;35268;42.642;23.308;2023-06-10T05:53:21;15.18;;;8.50;;
49392;SDS011;35268;42.642;23.308;2023-06-10T05:55:47;13.27;;;8.65;;
49392;SDS011;35268;42.642;23.308;2023-06-10T05:58:13;14.68;;;8.23;;
49392;SDS011;35268;42.642;23.308;2023-06-10T06:00:39;16.27;;;8.95;;
49392;SDS011;35268;42.642;23.308;2023-06-10T06:03:10;19.90;;;8.15;;
49392;SDS011;35268;42.642;23.308;2023-06-10T06:05:36;17.70;;;8.35;;
49392;SDS011;35268;42.642;23.308;2023-06-10T06:08:06;12.70;;;8.35;;
49392;SDS011;35268;42.642;23.308;2023-06-10T06:10:33;18.88;;;8.98;;
49392;SDS011;35268;42.642;23.308;2023-06-10T06:12:59;18.23;;;8.77;;
49392;SDS011;35268;42.642;23.308;2023-06-10T06:15:25;17.23;;;7.70;;
49392;SDS011;35268;42.642;23.308;2023-06-10T06:17:50;18.98;;;8.82;;
49392;SDS011;35268;42.642;23.308;2023-06-10T06:20:17;17.63;;;10.52;;
49392;SDS011;35268;42.642;23.308;2023-06-10T06:22:43;13.88;;;8.20;;
49392;SDS011;35268;42.642;23.308;2023-06-10T06:25:09;12.20;;;8.20;;
49392;SDS011;35268;42.642;23.308;2023-06-10T06:27:34;12.27;;;7.50;;
49392;SDS011;35268;42.642;23.308;2023-06-10T06:30:00;10.48;;;7.72;;
49392;SDS011;35268;42.642;23.308;2023-06-10T06:32:25;11.98;;;7.78;;
49392;SDS011;35268;42.642;23.308;2023-06-10T06:34:52;10.50;;;8.25;;
49392;SDS011;35268;42.642;23.308;2023-06-10T06:37:22;14.85;;;7.95;;
49392;SDS011;35268;42.642;23.308;2023-06-10T06:39:51;12.35;;;7.70;;
49392;SDS011;35268;42.642;23.308;2023-06-10T06:42:18;17.85;;;9.27;;
49392;SDS011;35268;42.642;23.308;2023-06-10T06:44:44;16.35;;;7.88;;
49392;SDS011;35268;42.642;23.308;2023-06-10T06:47:11;16.73;;;7.68;;
49392;SDS011;35268;42.642;23.308;2023-06-10T06:49:36;13.05;;;7.65;;
49392;SDS011;35268;42.642;23.308;2023-06-10T06:52:02;13.93;;;7.47;;
49392;SDS011;35268;42.642;23.308;2023-06-10T06:54:27;18.50;;;7.35;;
49392;SDS011;35268;42.642;23.308;2023-06-10T06:56:54;18.48;;;7.72;;
49392;SDS011;35268;42.642;23.308;2023-06-10T06:59:19;13.35;;;6.60;;
49392;SDS011;35268;42.642;23.308;2023-06-10T07:01:45;11.30;;;6.53;;
49392;SDS011;35268;42.642;23.308;2023-06-10T07:04:11;14.73;;;7.13;;
49392;SDS011;35268;42.642;23.308;2023-06-10T07:06:37;12.02;;;7.18;;
49392;SDS011;35268;42.642;23.308;2023-06-10T07:09:03;13.25;;;7.30;;
49392;SDS011;35268;42.642;23.308;2023-06-10T07:11:29;16.00;;;6.82;;
49392;SDS011;35268;42.642;23.308;2023-06-10T07:13:55;9.27;;;5.22;;
49392;SDS011;35268;42.642;23.308;2023-06-10T07:16:21;12.55;;;5.57;;
49392;SDS011;35268;42.642;23.308;2023-06-10T07:18:46;14.00;;;6.18;;
49392;SDS011;35268;42.642;23.308;2023-06-10T07:21:12;26.30;;;6.68;;
49392;SDS011;35268;42.642;23.308;2023-06-10T07:23:37;9.55;;;3.80;;
49392;SDS011;35268;42.642;23.308;2023-06-10T07:26:06;15.35;;;5.53;;
49392;SDS011;35268;42.642;23.308;2023-06-10T07:28:32;15.07;;;5.88;;
49392;SDS011;35268;42.642;23.308;2023-06-10T07:30:58;15.30;;;5.78;;
49392;SDS011;35268;42.642;23.308;2023-06-10T07:33:23;15.38;;;5.20;;
49392;SDS011;35268;42.642;23.308;2023-06-10T07:35:49;7.38;;;4.60;;
49392;SDS011;35268;42.642;23.308;2023-06-10T07:38:14;13.10;;;5.30;;
49392;SDS011;35268;42.642;23.308;2023-06-10T07:40:40;15.75;;;4.80;;
49392;SDS011;35268;42.642;23.308;2023-06-10T07:43:05;10.95;;;4.72;;
49392;SDS011;35268;42.642;23.308;2023-06-10T07:45:30;17.98;;;5.18;;
49392;SDS011;35268;42.642;23.308;2023-06-10T07:47:56;15.60;;;5.32;;
49392;SDS011;35268;42.642;23.308;2023-06-10T07:50:21;10.10;;;5.70;;
49392;SDS011;35268;42.642;23.308;2023-06-10T07:52:47;18.02;;;4.90;;
49392;SDS011;35268;42.642;23.308;2023-06-10T07:55:12;9.70;;;5.32;;
49392;SDS011;35268;42.642;23.308;2023-06-10T07:57:37;16.35;;;4.40;;
49392;SDS011;35268;42.642;23.308;2023-06-10T08:00:03;11.07;;;4.82;;
49392;SDS011;35268;42.642;23.308;2023-06-10T08:02:31;12.73;;;4.07;;
49392;SDS011;35268;42.642;23.308;2023-06-10T08:04:56;12.90;;;5.28;;
49392;SDS011;35268;42.642;23.308;2023-06-10T08:07:21;20.05;;;7.53;;
49392;SDS011;35268;42.642;23.308;2023-06-10T08:09:47;10.60;;;4.43;;
49392;SDS011;35268;42.642;23.308;2023-06-10T08:12:12;8.15;;;3.70;;
49392;SDS011;35268;42.642;23.308;2023-06-10T08:14:38;13.20;;;3.60;;
49392;SDS011;35268;42.642;23.308;2023-06-10T08:17:04;7.40;;;4.00;;
49392;SDS011;35268;42.642;23.308;2023-06-10T08:19:31;11.85;;;3.70;;
49392;SDS011;35268;42.642;23.308;2023-06-10T08:22:09;8.68;;;3.10;;
49392;SDS011;35268;42.642;23.308;2023-06-10T08:24:55;9.07;;;3.47;;
49392;SDS011;35268;42.642;23.308;2023-06-10T08:27:21;8.63;;;3.45;;
49392;SDS011;35268;42.642;23.308;2023-06-10T08:29:46;12.00;;;4.57;;
49392;SDS011;35268;42.642;23.308;2023-06-10T08:32:12;9.60;;;4.25;;
49392;SDS011;35268;42.642;23.308;2023-06-10T08:34:37;9.25;;;3.53;;
49392;SDS011;35268;42.642;23.308;2023-06-10T08:37:03;20.75;;;4.40;;
49392;SDS011;35268;42.642;23.308;2023-06-10T08:39:29;12.63;;;3.90;;
49392;SDS011;35268;42.642;23.308;2023-06-10T08:42:11;11.30;;;3.30;;
49392;SDS011;35268;42.642;23.308;2023-06-10T08:44:41;5.78;;;3.28;;
49392;SDS011;35268;42.642;23.308;2023-06-10T08:47:13;11.70;;;3.33;;
49392;SDS011;35268;42.642;23.308;2023-06-10T08:49:41;6.53;;;2.90;;
49392;SDS011;35268;42.642;23.308;2023-06-10T08:52:08;12.23;;;3.03;;
49392;SDS011;35268;42.642;23.308;2023-06-10T08:54:39;14.85;;;3.05;;
49392;SDS011;35268;42.642;23.308;2023-06-10T08:57:08;8.85;;;3.50;;
49392;SDS011;35268;42.642;23.308;2023-06-10T08:59:34;11.00;;;3.47;;
49392;SDS011;35268;42.642;23.308;2023-06-10T09:02:00;4.70;;;2.40;;
49392;SDS011;35268;42.642;23.308;2023-06-10T09:04:27;7.30;;;2.47;;
49392;SDS011;35268;42.642;23.308;2023-06-10T09:06:53;10.30;;;2.70;;
49392;SDS011;35268;42.642;23.308;2023-06-10T09:09:20;4.78;;;2.47;;
49392;SDS011;35268;42.642;23.308;2023-06-10T09:11:47;8.90;;;3.47;;
49392;SDS011;35268;42.642;23.308;2023-06-10T09:14:13;9.65;;;3.00;;
49392;SDS011;35268;42.642;23.308;2023-06-10T09:16:39;8.88;;;3.10;;
49392;SDS011;35268;42.642;23.308;2023-06-10T09:19:05;5.88;;;2.97;;
49392;SDS011;35268;42.642;23.308;2023-06-10T09:21:35;5.28;;;2.78;;
49392;SDS011;35268;42.642;23.308;2023-06-10T09:24:03;9.85;;;2.70;;
49392;SDS011;35268;42.642;23.308;2023-06-10T09:26:30;5.10;;;2.83;;
49392;SDS011;35268;42.642;23.308;2023-06-10T09:29:05;5.13;;;3.45;;
49392;SDS011;35268;42.642;23.308;2023-06-10T09:31:34;6.22;;;2.58;;
49392;SDS011;35268;42.642;23.308;2023-06-10T09:34:11;12.57;;;3.58;;
49392;SDS011;35268;42.642;23.308;2023-06-10T09:36:38;7.78;;;3.42;;
49392;SDS011;35268;42.642;23.308;2023-06-10T09:39:05;9.55;;;3.28;;
49392;SDS011;35268;42.642;23.308;2023-06-10T09:41:42;8.10;;;3.25;;
49392;SDS011;35268;42.642;23.308;2023-06-10T09:44:16;6.45;;;3.78;;
49392;SDS011;35268;42.642;23.308;2023-06-10T09:46:43;10.98;;;3.25;;
49392;SDS011;35268;42.642;23.308;2023-06-10T09:49:11;6.85;;;3.75;;
49392;SDS011;35268;42.642;23.308;2023-06-10T09:51:36;5.47;;;3.28;;
49392;SDS011;35268;42.642;23.308;2023-06-10T09:54:02;6.88;;;3.15;;
49392;SDS011;35268;42.642;23.308;2023-06-10T09:56:34;9.27;;;3.55;;
49392;SDS011;35268;42.642;23.308;2023-06-10T09:59:00;7.78;;;3.33;;
49392;SDS011;35268;42.642;23.308;2023-06-10T10:01:26;8.98;;;3.67;;
49392;SDS011;35268;42.642;23.308;2023-06-10T10:03:52;9.32;;;3.03;;
49392;SDS011;35268;42.642;23.308;2023-06-10T10:06:18;8.27;;;3.55;;
49392;SDS011;35268;42.642;23.308;2023-06-10T10:08:45;9.93;;;3.15;;
49392;SDS011;35268;42.642;23.308;2023-06-10T10:11:11;7.55;;;2.90;;
49392;SDS011;35268;42.642;23.308;2023-06-10T10:13:38;7.35;;;3.28;;
49392;SDS011;35268;42.642;23.308;2023-06-10T10:16:06;12.57;;;3.40;;
49392;SDS011;35268;42.642;23.308;2023-06-10T10:18:38;4.60;;;2.63;;
49392;SDS011;35268;42.642;23.308;2023-06-10T10:21:11;5.68;;;3.05;;
49392;SDS011;35268;42.642;23.308;2023-06-10T10:23:47;12.63;;;3.25;;
49392;SDS011;35268;42.642;23.308;2023-06-10T10:26:18;3.70;;;2.45;;
49392;SDS011;35268;42.642;23.308;2023-06-10T10:28:51;8.45;;;2.42;;
49392;SDS011;35268;42.642;23.308;2023-06-10T10:31:30;6.18;;;3.03;;
49392;SDS011;35268;42.642;23.308;2023-06-10T10:34:00;4.13;;;2.72;;
49392;SDS011;35268;42.642;23.308;2023-06-10T10:36:31;6.15;;;2.67;;
49392;SDS011;35268;42.642;23.308;2023-06-10T10:38:57;8.20;;;2.92;;
49392;SDS011;35268;42.642;23.308;2023-06-10T10:41:24;5.40;;;2.88;;
49392;SDS011;35268;42.642;23.308;2023-06-10T10:43:51;5.28;;;2.75;;
49392;SDS011;35268;42.642;23.308;2023-06-10T10:46:17;8.88;;;2.83;;
49392;SDS011;35268;42.642;23.308;2023-06-10T10:48:43;4.07;;;2.70;;
49392;SDS011;35268;42.642;23.308;2023-06-10T10:51:10;10.40;;;2.63;;
49392;SDS011;35268;42.642;23.308;2023-06-10T10:53:39;9.43;;;2.55;;
49392;SDS011;35268;42.642;23.308;2023-06-10T10:58:32;7.63;;;3.53;;
49392;SDS011;35268;42.642;23.308;2023-06-10T11:00:57;9.73;;;2.95;;
49392;SDS011;35268;42.642;23.308;2023-06-10T11:03:27;9.65;;;2.72;;
49392;SDS011;35268;42.642;23.308;2023-06-10T11:05:53;6.22;;;2.33;;
49392;SDS011;35268;42.642;23.308;2023-06-10T11:09:07;8.40;;;2.55;;
49392;SDS011;35268;42.642;23.308;2023-06-10T11:16:30;7.25;;;2.50;;
49392;SDS011;35268;42.642;23.308;2023-06-10T11:19:03;8.82;;;3.15;;
49392;SDS011;35268;42.642;23.308;2023-06-10T11:21:28;5.78;;;2.53;;
49392;SDS011;35268;42.642;23.308;2023-06-10T11:23:54;5.35;;;2.03;;
49392;SDS011;35268;42.642;23.308;2023-06-10T11:33:53;6.30;;;2.47;;
49392;SDS011;35268;42.642;23.308;2023-06-10T11:36:20;5.47;;;2.88;;
49392;SDS011;35268;42.642;23.308;2023-06-10T11:38:46;7.60;;;2.63;;
49392;SDS011;35268;42.642;23.308;2023-06-10T11:41:12;3.83;;;2.45;;
49392;SDS011;35268;42.642;23.308;2023-06-10T11:43:45;7.35;;;2.65;;
49392;SDS011;35268;42.642;23.308;2023-06-10T11:46:11;12.18;;;2.90;;
49392;SDS011;35268;42.642;23.308;2023-06-10T11:48:37;7.82;;;2.83;;
49392;SDS011;35268;42.642;23.308;2023-06-10T11:51:06;5.60;;;3.03;;
49392;SDS011;35268;42.642;23.308;2023-06-10T11:53:32;11.70;;;3.00;;
49392;SDS011;35268;42.642;23.308;2023-06-10T11:55:58;10.85;;;3.38;;
49392;SDS011;35268;42.642;23.308;2023-06-10T11:58:24;6.47;;;2.85;;
49392;SDS011;35268;42.642;23.308;2023-06-10T12:00:54;13.02;;;7.93;;
49392;SDS011;35268;42.642;23.308;2023-06-10T12:03:23;7.28;;;3.20;;
49392;SDS011;35268;42.642;23.308;2023-06-10T12:08:23;5.40;;;2.65;;
49392;SDS011;35268;42.642;23.308;2023-06-10T12:10:49;8.43;;;2.55;;
49392;SDS011;35268;42.642;23.308;2023-06-10T12:13:14;5.43;;;2.55;;
49392;SDS011;35268;42.642;23.308;2023-06-10T12:15:42;7.03;;;3.30;;
49392;SDS011;35268;42.642;23.308;2023-06-10T12:18:15;4.28;;;2.50;;
49392;SDS011;35268;42.642;23.308;2023-06-10T12:20:43;6.22;;;2.45;;
49392;SDS011;35268;42.642;23.308;2023-06-10T12:23:10;8.55;;;2.65;;
49392;SDS011;35268;42.642;23.308;2023-06-10T12:25:36;8.20;;;3.00;;
49392;SDS011;35268;42.642;23.308;2023-06-10T12:28:02;11.65;;;4.68;;
49392;SDS011;35268;42.642;23.308;2023-06-10T12:30:27;9.63;;;3.38;;
49392;SDS011;35268;42.642;23.308;2023-06-10T12:32:53;6.57;;;3.20;;
49392;SDS011;35268;42.642;23.308;2023-06-10T12:35:25;8.50;;;3.70;;
49392;SDS011;35268;42.642;23.308;2023-06-10T12:42:55;6.30;;;2.83;;
49392;SDS011;35268;42.642;23.308;2023-06-10T12:45:34;11.75;;;3.13;;
49392;SDS011;35268;42.642;23.308;2023-06-10T12:48:08;8.02;;;2.42;;
49392;SDS011;35268;42.642;23.308;2023-06-10T12:50:41;6.72;;;2.90;;
49392;SDS011;35268;42.642;23.308;2023-06-10T12:53:07;4.43;;;2.95;;
49392;SDS011;35268;42.642;23.308;2023-06-10T12:55:33;4.97;;;3.38;;
49392;SDS011;35268;42.642;23.308;2023-06-10T12:57:59;10.88;;;2.97;;
49392;SDS011;35268;42.642;23.308;2023-06-10T13:00:26;4.78;;;2.85;;
49392;SDS011;35268;42.642;23.308;2023-06-10T13:02:54;4.47;;;2.75;;
49392;SDS011;35268;42.642;23.308;2023-06-10T13:05:25;5.57;;;2.57;;
49392;SDS011;35268;42.642;23.308;2023-06-10T13:07:51;9.70;;;3.13;;
49392;SDS011;35268;42.642;23.308;2023-06-10T13:10:17;6.50;;;2.83;;
49392;SDS011;35268;42.642;23.308;2023-06-10T13:12:43;12.30;;;2.80;;
49392;SDS011;35268;42.642;23.308;2023-06-10T13:15:09;8.13;;;2.83;;
49392;SDS011;35268;42.642;23.308;2023-06-10T13:17:35;5.10;;;2.80;;
49392;SDS011;35268;42.642;23.308;2023-06-10T13:20:02;4.78;;;2.38;;
49392;SDS011;35268;42.642;23.308;2023-06-10T13:22:30;5.57;;;2.53;;
49392;SDS011;35268;42.642;23.308;2023-06-10T13:24:57;5.88;;;2.42;;
49392;SDS011;35268;42.642;23.308;2023-06-10T13:27:26;7.88;;;2.63;;
49392;SDS011;35268;42.642;23.308;2023-06-10T13:29:52;3.63;;;2.50;;
49392;SDS011;35268;42.642;23.308;2023-06-10T13:32:17;6.10;;;3.05;;
49392;SDS011;35268;42.642;23.308;2023-06-10T13:34:43;4.80;;;3.00;;
49392;SDS011;35268;42.642;23.308;2023-06-10T13:37:08;5.85;;;3.03;;
49392;SDS011;35268;42.642;23.308;2023-06-10T13:39:34;6.28;;;3.70;;
49392;SDS011;35268;42.642;23.308;2023-06-10T13:41:59;7.80;;;3.38;;
49392;SDS011;35268;42.642;23.308;2023-06-10T13:44:25;6.60;;;3.25;;
49392;SDS011;35268;42.642;23.308;2023-06-10T13:46:50;6.15;;;3.13;;
49392;SDS011;35268;42.642;23.308;2023-06-10T13:49:16;14.30;;;3.70;;
49392;SDS011;35268;42.642;23.308;2023-06-10T13:51:41;9.10;;;3.78;;
49392;SDS011;35268;42.642;23.308;2023-06-10T13:54:07;7.68;;;3.33;;
49392;SDS011;35268;42.642;23.308;2023-06-10T13:56:32;5.60;;;3.40;;
49392;SDS011;35268;42.642;23.308;2023-06-10T13:59:02;6.13;;;3.30;;
49392;SDS011;35268;42.642;23.308;2023-06-10T14:01:28;4.53;;;2.97;;
49392;SDS011;35268;42.642;23.308;2023-06-10T14:03:54;7.85;;;2.70;;
49392;SDS011;35268;42.642;23.308;2023-06-10T14:06:19;5.65;;;3.30;;
49392;SDS011;35268;42.642;23.308;2023-06-10T14:08:45;5.57;;;3.10;;
49392;SDS011;35268;42.642;23.308;2023-06-10T14:11:10;9.05;;;3.45;;
49392;SDS011;35268;42.642;23.308;2023-06-10T14:13:36;8.10;;;4.25;;
49392;SDS011;35268;42.642;23.308;2023-06-10T14:16:03;5.80;;;3.38;;
49392;SDS011;35268;42.642;23.308;2023-06-10T14:18:29;6.28;;;3.25;;
49392;SDS011;35268;42.642;23.308;2023-06-10T14:20:55;6.35;;;3.10;;
49392;SDS011;35268;42.642;23.308;2023-06-10T14:23:20;7.90;;;3.30;;
49392;SDS011;35268;42.642;23.308;2023-06-10T14:25:46;6.95;;;3.00;;
49392;SDS011;35268;42.642;23.308;2023-06-10T14:28:11;4.93;;;3.00;;
49392;SDS011;35268;42.642;23.308;2023-06-10T14:30:37;5.88;;;3.47;;
49392;SDS011;35268;42.642;23.308;2023-06-10T14:33:02;4.80;;;3.33;;
49392;SDS011;35268;42.642;23.308;2023-06-10T14:35:28;9.98;;;4.32;;
49392;SDS011;35268;42.642;23.308;2023-06-10T14:37:53;5.88;;;3.33;;
49392;SDS011;35268;42.642;23.308;2023-06-10T14:40:19;4.18;;;2.80;;
49392;SDS011;35268;42.642;23.308;2023-06-10T14:42:48;5.03;;;3.40;;
49392;SDS011;35268;42.642;23.308;2023-06-10T14:45:13;11.18;;;3.78;;
49392;SDS011;35268;42.642;23.308;2023-06-10T14:47:40;8.55;;;3.13;;
49392;SDS011;35268;42.642;23.308;2023-06-10T14:50:05;21.45;;;3.70;;